14TN weather

News Channel 3 Heliport
Memphis, Tennessee, United States

Public forecast

Using degrees Fahrenheit for public forecast. Weather courtesy of forecast.io.

METAR (pilot weather report)

Closest report is Memphis International Airport, 6.9 nm (12.7 km) SE. Retrieved 2019/06/24 15:54 UTC (1 hour ago):

KMEM 241554Z VRB06G14KT 10SM SCT016 BKN120 BKN250 25/21 A2988 RMK AO2 SLP116 T02500206

TAF (pilot weather forecast)

Closest forecast is Memphis International Airport, 6.9 nm (12.7 km) SE. Retrieved 2019/06/24 12:33 UTC (4 hours ago):

TAF KMEM 241131Z 2412/2518 VRB05KT P6SM VCSH SCT007 OVC090 TEMPO 2412/2415 BKN007 FM241500 22009G15KT P6SM BKN025 OVC120 FM241700 25012G18KT P6SM SCT035 BKN150 FM242300 23010KT P6SM FEW040 BKN250 FM250200 20005KT P6SM SCT250 FM251600 17009KT P6SM SCT150 SCT250